Startpagina
METAR-TAF:

METAR-TAF

Vliegvelden :

Cairns Airport

Cairns, Australië

breedte: 16-53S, lengte: 145-45E, hoogte: 3 m

Actueel weer

Dit bericht is 33 minuten geleden gemaakt, om 05:00 UTC
Wind 13 kt uit het oosten
Temperatuur 31°C
Vochtigheid 40%
Druk 1010 hPa
Zicht 10 km of meer
Weinig wolken op 4500 ft

METAR: YBCS 180500Z 08013KT 9999 FEW045 31/16 Q1010 NOSIG

Tijdstip: 15:33 (05:33 UTC)

Verwachting

Dit bericht is 7 uur en het 0 minuten geleden gemaakt, om 22:33 UTC
Verwachting geldig van 18 om 00 UTC tot 18 om 24 UTC
Wind 8 kt uit het zuidoosten
Zicht 10 km of meer
Weinig wolken op 4000 ft
Van 18 om 0100 UTC
Wind 14 kt uit het oosten
Zicht 10 km of meer
Weinig wolken op 4500 ft
Van 18 om 0800 UTC
Wind 8 kt uit het zuidoosten
Zicht 10 km of meer
Weinig wolken op 2500 ft

TAF: YBCS 172233Z 1800/1824 13008KT 9999 FEW040 FM180100 08014KT 9999 FEW045 FM180800 13008KT 9999 FEW025

Waarnemingen en weersverwachtingen van meer dan 4000 vliegvelden (METAR en TAF).

De beschikbare stations zijn de gele en rode punten op de kaart.

Ga met uw muis naar het station om de naam te zien.

Klik dan om waarnemingen en weersverwachtingen te zien.

kaart wijzigen: klik op de groene knoppen met een zwart kruis om in te zoomen, op de groene knop met een streepje om uit te zoomen of op de groene pijlen voor aangrenzende kaarten.


METAR-TAF: